<?xml version="1.0" encoding="UTF-8" standalone="no" ?>
<gpx xmlns="http://www.topografix.com/GPX/1/1" xmlns:xsi="http://www.w3.org/2001/XMLSchema-instance" xsi:schemaLocation="http://www.topografix.com/GPX/1/1 http://www.topografix.com/GPX/1/1/gpx.xsd" version="1.1" creator="VisuGPX - https://www.visugpx.com">
  <metadata>
    <name>Parilly 14km</name>
    <desc><![CDATA[un ptit footing a l allure sympa]]></desc>
  </metadata>
  <trk>
    <name><![CDATA[Sequence 3]]></name>
    <trkseg>
      <trkpt lat="45.71887" lon="4.90604">
        <ele>154</ele>
        <time>2017-02-28T18:01:54Z</time>
      </trkpt>
      <trkpt lat="45.71893" lon="4.90613">
        <ele>161</ele>
        <time>2017-02-28T18:01:56Z</time>
      </trkpt>
      <trkpt lat="45.719" lon="4.90638">
        <ele>159</ele>
        <time>2017-02-28T18:02:01Z</time>
      </trkpt>
      <trkpt lat="45.71915" lon="4.9067">
        <ele>158</ele>
        <time>2017-02-28T18:02:10Z</time>
      </trkpt>
      <trkpt lat="45.71916" lon="4.907">
        <ele>155</ele>
        <time>2017-02-28T18:02:18Z</time>
      </trkpt>
      <trkpt lat="45.71918" lon="4.90705">
        <ele>155</ele>
        <time>2017-02-28T18:02:19Z</time>
      </trkpt>
      <trkpt lat="45.71936" lon="4.90748">
        <ele>154</ele>
        <time>2017-02-28T18:02:30Z</time>
      </trkpt>
      <trkpt lat="45.71936" lon="4.90754">
        <ele>154</ele>
        <time>2017-02-28T18:02:31Z</time>
      </trkpt>
      <trkpt lat="45.7194" lon="4.90793">
        <ele>154</ele>
        <time>2017-02-28T18:02:37Z</time>
      </trkpt>
      <trkpt lat="45.71937" lon="4.90838">
        <ele>158</ele>
        <time>2017-02-28T18:02:48Z</time>
      </trkpt>
      <trkpt lat="45.71901" lon="4.90814">
        <ele>165</ele>
        <time>2017-02-28T18:02:58Z</time>
      </trkpt>
      <trkpt lat="45.71897" lon="4.90807">
        <ele>165</ele>
        <time>2017-02-28T18:03:01Z</time>
      </trkpt>
      <trkpt lat="45.71887" lon="4.90789">
        <ele>165</ele>
        <time>2017-02-28T18:03:07Z</time>
      </trkpt>
      <trkpt lat="45.71868" lon="4.90763">
        <ele>167</ele>
        <time>2017-02-28T18:03:13Z</time>
      </trkpt>
      <trkpt lat="45.71863" lon="4.90727">
        <ele>162</ele>
        <time>2017-02-28T18:03:19Z</time>
      </trkpt>
      <trkpt lat="45.71849" lon="4.90693">
        <ele>163</ele>
        <time>2017-02-28T18:03:25Z</time>
      </trkpt>
      <trkpt lat="45.71831" lon="4.90639">
        <ele>160</ele>
        <time>2017-02-28T18:03:36Z</time>
      </trkpt>
      <trkpt lat="45.71829" lon="4.90629">
        <ele>162</ele>
        <time>2017-02-28T18:03:38Z</time>
      </trkpt>
      <trkpt lat="45.71752" lon="4.90471">
        <ele>160</ele>
        <time>2017-02-28T18:04:24Z</time>
      </trkpt>
      <trkpt lat="45.71695" lon="4.90485">
        <ele>169</ele>
        <time>2017-02-28T18:04:36Z</time>
      </trkpt>
      <trkpt lat="45.71664" lon="4.90466">
        <ele>173</ele>
        <time>2017-02-28T18:04:43Z</time>
      </trkpt>
      <trkpt lat="45.71608" lon="4.90418">
        <ele>183</ele>
        <time>2017-02-28T18:05:02Z</time>
      </trkpt>
      <trkpt lat="45.71594" lon="4.90402">
        <ele>184</ele>
        <time>2017-02-28T18:05:07Z</time>
      </trkpt>
      <trkpt lat="45.7152" lon="4.90354">
        <ele>187</ele>
        <time>2017-02-28T18:05:30Z</time>
      </trkpt>
      <trkpt lat="45.71507" lon="4.90362">
        <ele>184</ele>
        <time>2017-02-28T18:05:33Z</time>
      </trkpt>
      <trkpt lat="45.71497" lon="4.90357">
        <ele>189</ele>
        <time>2017-02-28T18:05:38Z</time>
      </trkpt>
      <trkpt lat="45.71484" lon="4.90352">
        <ele>193</ele>
        <time>2017-02-28T18:05:43Z</time>
      </trkpt>
      <trkpt lat="45.71479" lon="4.90337">
        <ele>196</ele>
        <time>2017-02-28T18:05:50Z</time>
      </trkpt>
      <trkpt lat="45.71478" lon="4.90276">
        <ele>185</ele>
        <time>2017-02-28T18:05:59Z</time>
      </trkpt>
      <trkpt lat="45.71472" lon="4.90219">
        <ele>181</ele>
        <time>2017-02-28T18:06:11Z</time>
      </trkpt>
      <trkpt lat="45.71463" lon="4.90093">
        <ele>174</ele>
        <time>2017-02-28T18:06:31Z</time>
      </trkpt>
      <trkpt lat="45.71464" lon="4.90081">
        <ele>174</ele>
        <time>2017-02-28T18:06:33Z</time>
      </trkpt>
      <trkpt lat="45.71484" lon="4.89946">
        <ele>174</ele>
        <time>2017-02-28T18:07:05Z</time>
      </trkpt>
      <trkpt lat="45.71485" lon="4.89871">
        <ele>176</ele>
        <time>2017-02-28T18:07:18Z</time>
      </trkpt>
      <trkpt lat="45.71487" lon="4.89868">
        <ele>176</ele>
        <time>2017-02-28T18:07:19Z</time>
      </trkpt>
      <trkpt lat="45.71487" lon="4.89808">
        <ele>170</ele>
        <time>2017-02-28T18:07:31Z</time>
      </trkpt>
      <trkpt lat="45.71498" lon="4.89802">
        <ele>171</ele>
        <time>2017-02-28T18:07:35Z</time>
      </trkpt>
      <trkpt lat="45.71507" lon="4.8979">
        <ele>168</ele>
        <time>2017-02-28T18:07:38Z</time>
      </trkpt>
      <trkpt lat="45.71531" lon="4.8977">
        <ele>168</ele>
        <time>2017-02-28T18:07:46Z</time>
      </trkpt>
      <trkpt lat="45.71546" lon="4.8975">
        <ele>169</ele>
        <time>2017-02-28T18:07:51Z</time>
      </trkpt>
      <trkpt lat="45.71555" lon="4.89726">
        <ele>171</ele>
        <time>2017-02-28T18:07:56Z</time>
      </trkpt>
      <trkpt lat="45.71576" lon="4.89664">
        <ele>177</ele>
        <time>2017-02-28T18:08:06Z</time>
      </trkpt>
      <trkpt lat="45.71581" lon="4.89651">
        <ele>181</ele>
        <time>2017-02-28T18:08:08Z</time>
      </trkpt>
      <trkpt lat="45.71595" lon="4.89627">
        <ele>176</ele>
        <time>2017-02-28T18:08:19Z</time>
      </trkpt>
      <trkpt lat="45.71595" lon="4.89627">
        <ele>175</ele>
        <time>2017-02-28T18:08:21Z</time>
      </trkpt>
    </trkseg>
  </trk>
</gpx>